The Ridgeway Revenge
18 Jun 2016

     
Click your name for detailed results

Page 1 of 4 (176 items)
PosBib NoNameGun TimeChip TimeCategoryCat PosGenderGen PosTeamPace
21262Andrea WEST1:48:39.11:48:32.3Sen1Female17.2 m/hr
26309Victoria PLUMMER1:50:52.01:50:51.0Sen2Female27.1 m/hr
28344Geri TAYLOR1:52:18.71:52:12.9Sen3Female37.0 m/hr
31202Sarah CHEW1:53:34.01:53:28.6Sen4Female4RUN SWINDON6.9 m/hr
53294Agnes NAGY1:59:50.41:59:48.5Sen5Female96.6 m/hr
60290Tanya MINGO2:01:51.52:01:49.2Sen6Female126.5 m/hr
75316Monika REVESZ2:06:31.12:06:21.7Sen7Female14DASHETTES6.2 m/hr
87368Rachel WHITING2:11:03.92:11:03.9Sen8Female156.0 m/hr
91243Anna GORMAN2:12:11.22:12:11.2Sen9Female165.9 m/hr
93197Janet BULTITUDE2:13:03.32:12:40.1Sen10Female17LAZYLECTURERS5.9 m/hr
97188Eleanor BIRD2:14:16.22:14:04.0Sen11Female185.9 m/hr
102260Sarah HOEKSMA2:15:28.72:14:59.8Sen12Female20LOOKING ADEQUATELY TIRED FOR THE AMOUNT OF EFFORT 5.8 m/hr
111229Emma FAULDER2:18:52.12:18:34.6Sen13Female255.7 m/hr
114377Nicola WYLIE2:19:24.72:19:16.4Sen14Female265.6 m/hr
132185Lauryn BENTHAM2:25:40.22:25:26.1Sen15Female34AMBULANCE MAY BE REQUIRED5.4 m/hr
138282Kate MALEM2:28:28.52:28:15.8Sen16Female405.3 m/hr
140258Natalie HIGHETT2:29:52.42:29:40.1Sen17Female415.2 m/hr
143326Stephanie SMALLMAN2:31:43.22:31:31.5Sen18Female445.2 m/hr
145171Jennifer ADAMS2:35:20.62:35:06.7Sen19Female46AMBULANCE MAY BE REQUIRED5.1 m/hr
148346Carolyn THRAVES2:36:51.02:36:39.5Sen20Female495.0 m/hr
150378Nicola YORK2:39:36.02:39:18.3Sen21Female514.9 m/hr
157354Annemieke VAN DER VAART2:41:46.52:41:20.2Sen22Female554.9 m/hr
159193Jessica WOOLFENDON2:41:46.62:41:19.6Sen23Female57SPLINTERESSSES4.9 m/hr
164361Nina WELLS2:45:35.02:45:08.1Sen24Female594.7 m/hr
312Lissa PRITCHARDQRYQRYSenFemaleBRITISH AIRWAYS RUNNERS
1259Matt HODEY1:33:24.81:33:22.5Sen1Male18.4 m/hr
2263Richard HYETT1:44:50.81:44:30.6Sen2Male27.5 m/hr
3209Patrick COOPER1:45:55.81:45:52.7Sen3Male37.4 m/hr
4257Gary HERRING1:46:05.81:46:05.1Sen4Male47.4 m/hr
7364Matt WHEATLEY1:46:29.71:46:26.2Sen5Male77.4 m/hr
10357Matvey VIKHROV1:46:43.81:46:37.5Sen6Male107.4 m/hr
11321Paul SCULLION1:47:09.61:47:08.0Sen7Male117.3 m/hr
13373Ashley WILLIAMS1:47:22.81:47:17.1Sen8Male137.3 m/hr
14244Darren GREEN1:47:42.61:47:35.8Sen9Male147.3 m/hr
15360Toby WARREN1:47:50.91:47:50.9Sen10Male157.3 m/hr
20308Lee PLANK1:48:28.91:48:27.6Sen11Male20HIGHWORTH RUNNING CLUB7.2 m/hr
24293Paul MOSS1:49:36.71:49:35.2Sen12Male237.2 m/hr
25289Chris MIDWINTER1:49:44.21:49:41.7Sen13Male247.2 m/hr
32329William SMITH1:53:48.31:53:34.8Sen14Male286.9 m/hr
34375Graeme WINSPEAR1:54:11.21:53:59.9Sen15Male306.9 m/hr
38298Richard NIBLETT1:54:38.01:54:36.7Sen16Male32BAKERS BUDDIES6.9 m/hr
40291Freddie MOORHEAD1:55:30.11:55:25.2Sen17Male34MOORHEAD6.8 m/hr
44356Nick VICKARS1:58:06.21:58:00.0Sen18Male376.7 m/hr
45359Philip WALKER1:58:13.71:58:07.5Sen19Male386.6 m/hr
47372Jack WILLIAMS1:58:37.21:58:29.8Sen20Male406.6 m/hr
48206James CLAPP1:59:11.11:59:11.1Sen21Male416.6 m/hr
61336Chris STRINGER2:01:57.92:01:50.6Sen22Male496.4 m/hr
62284Jethro MARRIAGE2:02:11.02:01:56.9Sen23Male50DOVES FARM6.4 m/hr
63313Will PROUT2:02:18.02:02:14.3Sen24Male516.4 m/hr
68228James FARRANT2:04:48.72:04:38.4Sen25Male566.3 m/hr
Page 1 of 4 (176 items)
   

fb